Time;durP1;ratioP1;P1;durP2;ratioP2;P2;SDS_P1;SDS_P2;PMS_P1;PMS_P2;Temp;Humidity;BMP_temperature;BMP_pressure;BME280_temperature;BME280_humidity;BME280_pressure;Samples;Min_cycle;Max_cycle;Signal;HPM_P1;HPM_P2
2023/04/01 00:01:55;;;;;;;5.00;1.75;;;;;;;11.06;78.92;99063.47;5060323;28;20025;-66
2023/04/01 00:04:20;;;;;;;4.13;1.70;;;;;;;11.12;78.79;99055.91;5075243;28;20388;-67
2023/04/01 00:06:47;;;;;;;4.60;1.63;;;;;;;11.13;78.99;99059.50;5068365;28;20708;-66
2023/04/01 00:09:13;;;;;;;4.35;1.60;;;;;;;11.11;79.09;99064.50;5064083;28;20672;-66
2023/04/01 00:11:38;;;;;;;5.43;1.92;;;;;;;11.11;79.16;99062.56;5052276;28;20043;-66
2023/04/01 00:14:04;;;;;;;6.43;2.00;;;;;;;11.07;79.22;99062.31;5067645;28;20025;-67
2023/04/01 00:16:30;;;;;;;4.97;1.55;;;;;;;11.10;79.36;99060.09;5062988;28;20506;-67
2023/04/01 00:18:56;;;;;;;4.03;1.67;;;;;;;11.06;79.01;99063.47;5069553;28;20020;-68
2023/04/01 00:21:22;;;;;;;4.22;1.80;;;;;;;11.06;79.29;99057.09;5051855;28;20060;-68
2023/04/01 00:23:48;;;;;;;6.25;2.25;;;;;;;11.09;79.16;99066.78;5060329;28;20806;-68
2023/04/01 00:26:14;;;;;;;3.58;1.70;;;;;;;11.07;79.08;99070.66;5063464;28;20029;-68
2023/04/01 00:28:40;;;;;;;6.18;1.83;;;;;;;11.03;79.02;99069.59;5064796;28;20024;-68
2023/04/01 00:31:07;;;;;;;3.95;1.75;;;;;;;11.04;79.18;99060.16;5078378;28;20019;-68
2023/04/01 00:33:32;;;;;;;4.38;1.52;;;;;;;11.05;79.42;99055.44;5073027;28;20047;-68
2023/04/01 00:36:16;;;;;;;4.28;1.77;;;;;;;11.05;79.22;99070.16;5069325;28;20032;-68
2023/04/01 00:38:42;;;;;;;5.45;1.83;;;;;;;11.05;79.36;99077.66;5073216;28;20031;-67
2023/04/01 00:41:10;;;;;;;3.40;1.95;;;;;;;11.02;79.10;99073.50;5089745;28;20024;-67
2023/04/01 00:43:36;;;;;;;2.90;1.67;;;;;;;11.05;79.21;99080.44;5063414;28;20383;-68
2023/04/01 00:46:01;;;;;;;3.03;1.70;;;;;;;11.06;79.34;99074.56;5067411;28;20025;-67
2023/04/01 00:48:31;;;;;;;3.85;1.85;;;;;;;11.09;79.18;99075.94;5053819;28;20025;-67
2023/04/01 00:51:02;;;;;;;3.35;1.70;;;;;;;11.09;79.10;99083.44;5050065;28;20040;-67
2023/04/01 00:53:28;;;;;;;2.97;1.80;;;;;;;11.07;78.92;99090.09;5061215;28;20037;-67
2023/04/01 00:56:02;;;;;;;2.47;1.92;;;;;;;11.03;79.27;99089.03;5093703;28;20169;-68
2023/04/01 00:58:33;;;;;;;2.83;1.92;;;;;;;11.00;79.34;99088.81;5071734;28;20048;-67
2023/04/01 01:01:00;;;;;;;3.47;2.00;;;;;;;11.01;79.47;99088.53;5066512;28;20028;-67
2023/04/01 01:03:25;;;;;;;3.50;1.90;;;;;;;11.00;79.27;99086.88;5057646;28;20036;-67
2023/04/01 01:05:58;;;;;;;3.17;1.88;;;;;;;11.00;79.66;99098.00;5078545;28;20081;-67
2023/04/01 01:08:32;;;;;;;4.68;1.80;;;;;;;10.98;79.79;99094.66;5068495;28;20580;-67
2023/04/01 01:10:57;;;;;;;3.30;2.15;;;;;;;10.98;79.42;99094.66;5081228;28;20032;-67
2023/04/01 01:13:34;;;;;;;2.72;2.20;;;;;;;10.92;79.81;99098.63;5092395;28;20044;-67
2023/04/01 01:16:23;;;;;;;2.60;2.20;;;;;;;10.93;79.91;99096.69;5072821;28;20032;-68
2023/04/01 01:19:05;;;;;;;3.03;1.90;;;;;;;10.93;80.24;99100.31;5069903;28;20111;-67
2023/04/01 01:21:49;;;;;;;2.45;2.13;;;;;;;10.94;80.17;99109.44;5053590;28;20098;-67
2023/04/01 01:24:23;;;;;;;3.22;2.20;;;;;;;10.96;79.92;99101.63;5066218;28;20036;-67
2023/04/01 01:27:02;;;;;;;2.60;2.40;;;;;;;10.93;80.23;99103.06;5074701;28;20032;-67
2023/04/01 01:29:58;;;;;;;2.50;2.30;;;;;;;10.96;80.16;99101.63;5058047;28;20028;-67
2023/04/01 01:32:41;;;;;;;2.22;2.03;;;;;;;10.96;80.00;99105.22;5056656;28;20039;-67
2023/04/01 01:35:22;;;;;;;3.83;2.38;;;;;;;10.96;79.84;99112.72;5064463;28;20028;-67
2023/04/01 01:37:51;;;;;;;2.90;2.42;;;;;;;10.98;79.79;99105.78;5071080;28;20020;-67
2023/04/01 01:40:18;;;;;;;3.40;3.10;;;;;;;10.96;80.08;99113.56;5063766;28;20033;-67
2023/04/01 01:42:48;;;;;;;4.43;3.33;;;;;;;10.98;79.92;99116.06;5067947;28;20043;-67
2023/04/01 01:45:17;;;;;;;4.43;4.00;;;;;;;10.98;79.64;99122.44;5062085;28;20029;-67
2023/04/01 01:47:45;;;;;;;5.57;4.57;;;;;;;10.99;79.45;99126.84;5085385;28;20074;-67
2023/04/01 01:50:11;;;;;;;5.78;5.28;;;;;;;11.01;79.36;99109.91;5079247;28;20068;-67
2023/04/01 01:52:36;;;;;;;5.80;5.40;;;;;;;11.02;79.37;99117.94;5068256;28;20032;-68
2023/04/01 01:55:02;;;;;;;4.90;4.53;;;;;;;10.96;79.55;99127.44;5070219;28;20037;-67
2023/04/01 01:57:36;;;;;;;5.50;5.10;;;;;;;10.98;79.44;99116.88;5059748;28;20040;-67
2023/04/01 02:00:12;;;;;;;5.07;4.70;;;;;;;10.97;79.22;99131.06;5060299;28;20048;-67
2023/04/01 02:02:40;;;;;;;5.60;4.90;;;;;;;10.96;79.32;99127.44;5063313;28;20067;-67
2023/04/01 02:05:07;;;;;;;4.82;4.43;;;;;;;10.98;79.06;99136.31;5051193;28;20111;-67
2023/04/01 02:07:35;;;;;;;5.53;5.03;;;;;;;10.96;79.44;99133.00;5051412;28;20025;-67
2023/04/01 02:10:02;;;;;;;4.90;4.50;;;;;;;10.96;79.29;99124.66;5070454;28;20074;-67
2023/04/01 02:12:28;;;;;;;5.45;4.95;;;;;;;10.98;79.09;99133.53;5068547;28;20059;-67
2023/04/01 02:15:00;;;;;;;5.97;5.38;;;;;;;10.99;79.08;99137.94;5068865;28;20028;-67
2023/04/01 02:17:29;;;;;;;6.10;5.50;;;;;;;10.98;79.04;99139.09;5067399;28;20060;-67
2023/04/01 02:20:04;;;;;;;6.68;6.07;;;;;;;10.99;79.41;99146.28;5068592;28;20400;-67
2023/04/01 02:22:33;;;;;;;7.78;6.97;;;;;;;10.98;79.18;99147.41;5058591;28;20480;-67
2023/04/01 02:25:04;;;;;;;8.23;7.35;;;;;;;10.94;79.20;99143.59;5067259;28;20198;-67
2023/04/01 02:27:30;;;;;;;8.38;7.22;;;;;;;10.93;79.24;99146.66;5067812;28;20419;-67
2023/04/01 02:29:55;;;;;;;8.60;7.68;;;;;;;10.95;79.42;99142.44;5070675;28;20464;-67
2023/04/01 02:32:21;;;;;;;9.35;7.55;;;;;;;10.95;79.20;99153.56;5066074;28;20028;-67
2023/04/01 02:34:48;;;;;;;9.38;7.32;;;;;;;10.99;79.13;99151.84;5070241;28;20033;-67
2023/04/01 02:37:13;;;;;;;9.45;7.88;;;;;;;10.93;79.01;99146.66;5061244;28;20047;-67
2023/04/01 02:39:39;;;;;;;10.35;8.73;;;;;;;10.91;79.01;99149.72;5067330;28;20032;-67
2023/04/01 02:42:05;;;;;;;12.10;8.80;;;;;;;10.93;79.43;99147.50;5069394;28;20033;-67
2023/04/01 02:44:30;;;;;;;10.15;9.15;;;;;;;10.89;79.07;99151.97;5061992;28;20032;-67
2023/04/01 02:46:56;;;;;;;11.57;9.95;;;;;;;10.88;79.44;99158.63;5051130;28;20033;-67
2023/04/01 02:49:21;;;;;;;11.52;10.00;;;;;;;10.92;79.36;99151.38;5061291;28;20024;-67
2023/04/01 02:51:46;;;;;;;12.02;10.75;;;;;;;10.90;79.27;99164.72;5063803;28;20468;-67
2023/04/01 02:54:12;;;;;;;11.68;10.32;;;;;;;10.89;79.40;99168.63;5059772;28;20044;-67
2023/04/01 02:56:37;;;;;;;12.18;10.98;;;;;;;10.90;79.50;99161.97;5071865;28;20495;-67
2023/04/01 02:59:02;;;;;;;13.10;11.32;;;;;;;10.91;79.37;99163.59;5073453;28;20037;-67
2023/04/01 03:01:28;;;;;;;11.18;10.02;;;;;;;10.92;79.20;99164.44;5069232;28;20038;-67
2023/04/01 03:03:53;;;;;;;12.88;10.85;;;;;;;10.93;79.01;99161.38;5068190;28;20025;-67
2023/04/01 03:06:18;;;;;;;12.77;10.75;;;;;;;10.91;79.12;99160.00;5067098;28;20421;-67
2023/04/01 03:08:44;;;;;;;11.23;10.00;;;;;;;10.94;78.74;99167.75;5064339;28;20055;-67
2023/04/01 03:11:10;;;;;;;11.90;10.13;;;;;;;10.89;79.06;99176.16;5065915;28;20099;-67
2023/04/01 03:13:36;;;;;;;12.07;10.15;;;;;;;10.88;79.27;99171.69;5063940;28;20594;-67
2023/04/01 03:16:02;;;;;;;10.85;9.70;;;;;;;10.88;79.47;99180.84;5063946;28;20040;-67
2023/04/01 03:18:27;;;;;;;11.10;9.38;;;;;;;10.89;79.16;99179.75;5053063;28;20090;-67
2023/04/01 03:20:53;;;;;;;12.68;10.38;;;;;;;10.85;79.28;99186.19;5069112;28;20040;-67
2023/04/01 03:23:20;;;;;;;11.45;9.27;;;;;;;10.86;79.63;99191.44;5064662;28;20029;-67
2023/04/01 03:25:46;;;;;;;10.20;9.20;;;;;;;10.84;79.41;99192.84;5069497;28;20028;-67
2023/04/01 03:28:13;;;;;;;11.85;9.15;;;;;;;10.83;79.53;99189.25;5069435;28;20506;-68
2023/04/01 03:30:38;;;;;;;9.88;8.88;;;;;;;10.78;79.54;99194.84;5066446;28;20048;-68
2023/04/01 03:33:04;;;;;;;11.20;9.05;;;;;;;10.76;80.01;99191.53;5065249;28;20048;-67
2023/04/01 03:35:29;;;;;;;10.60;9.50;;;;;;;10.76;79.63;99197.91;5082889;28;20486;-68
2023/04/01 03:37:54;;;;;;;10.48;8.93;;;;;;;10.80;79.57;99198.97;5067274;28;20054;-66
2023/04/01 03:40:21;;;;;;;9.73;8.80;;;;;;;10.79;79.71;99197.31;5067901;28;20102;-67
2023/04/01 03:42:46;;;;;;;8.90;8.00;;;;;;;10.81;79.65;99205.38;5063460;28;20055;-66
2023/04/01 03:45:12;;;;;;;9.82;8.82;;;;;;;10.81;79.79;99202.59;5049055;28;20044;-66
2023/04/01 03:47:38;;;;;;;8.90;8.00;;;;;;;10.70;79.85;99206.59;5070364;28;20033;-66
2023/04/01 03:50:05;;;;;;;9.68;8.68;;;;;;;10.70;79.83;99203.81;5070301;28;20146;-66
2023/04/01 03:52:30;;;;;;;9.43;8.52;;;;;;;10.73;80.06;99208.81;5055292;28;20036;-67
2023/04/01 03:54:56;;;;;;;9.05;8.15;;;;;;;10.69;80.18;99207.69;5067510;28;20468;-66
2023/04/01 03:57:22;;;;;;;8.52;7.70;;;;;;;10.70;80.07;99204.66;5060304;28;20043;-67
2023/04/01 03:59:47;;;;;;;8.40;7.60;;;;;;;10.74;79.69;99216.00;5075436;28;20032;-67
2023/04/01 04:02:12;;;;;;;7.20;6.50;;;;;;;10.73;80.01;99215.16;5064100;28;20032;-67
2023/04/01 04:04:38;;;;;;;6.43;5.90;;;;;;;10.74;79.65;99213.22;5082176;28;20567;-66
2023/04/01 04:07:03;;;;;;;6.78;6.18;;;;;;;10.73;79.50;99217.13;5052078;28;20036;-67
2023/04/01 04:09:31;;;;;;;6.35;5.78;;;;;;;10.71;79.50;99217.41;5069250;28;20035;-66
2023/04/01 04:11:56;;;;;;;6.30;5.80;;;;;;;10.72;79.45;99221.81;5066303;28;20055;-67
2023/04/01 04:14:22;;;;;;;5.97;5.47;;;;;;;10.74;79.76;99221.53;5068753;28;20052;-67
2023/04/01 04:16:48;;;;;;;5.60;5.10;;;;;;;10.71;79.47;99222.94;5052725;28;20124;-67
2023/04/01 04:19:13;;;;;;;5.57;5.07;;;;;;;10.69;79.59;99225.22;5059844;28;20728;-67
2023/04/01 04:21:40;;;;;;;6.05;5.55;;;;;;;10.63;79.72;99237.47;5059127;28;20123;-67
2023/04/01 04:24:06;;;;;;;5.68;5.18;;;;;;;10.62;79.94;99235.81;5059901;28;20039;-67
2023/04/01 04:26:31;;;;;;;6.07;5.47;;;;;;;10.64;80.04;99235.50;5072659;28;20028;-67
2023/04/01 04:28:56;;;;;;;5.40;4.88;;;;;;;10.63;79.97;99236.66;5080193;28;20107;-67
2023/04/01 04:31:24;;;;;;;5.28;4.78;;;;;;;10.65;79.55;99240.78;5063320;28;20045;-67
2023/04/01 04:33:49;;;;;;;5.25;4.75;;;;;;;10.67;79.68;99240.47;5067287;28;20111;-67
2023/04/01 04:36:15;;;;;;;5.38;4.80;;;;;;;10.69;79.44;99246.56;5068155;28;20111;-67
2023/04/01 04:38:40;;;;;;;4.80;4.40;;;;;;;10.70;79.61;99245.44;5073126;28;20468;-67
2023/04/01 04:41:14;;;;;;;4.82;4.43;;;;;;;10.72;79.78;99251.53;5080974;28;20507;-67
2023/04/01 04:43:40;;;;;;;5.00;4.10;;;;;;;10.66;80.01;99241.63;5061437;28;20043;-67
2023/04/01 04:46:07;;;;;;;4.13;3.83;;;;;;;10.66;79.50;99249.94;5057056;28;20079;-67
2023/04/01 04:48:33;;;;;;;4.32;4.03;;;;;;;10.63;79.34;99253.28;5052495;28;20475;-67
2023/04/01 04:50:58;;;;;;;4.20;3.80;;;;;;;10.62;79.42;99251.66;5065489;28;20194;-67
2023/04/01 04:53:25;;;;;;;3.75;3.45;;;;;;;10.61;79.33;99256.38;5068770;28;20394;-67
2023/04/01 04:55:50;;;;;;;3.75;3.45;;;;;;;10.63;79.55;99267.16;5086472;28;20130;-67
2023/04/01 04:58:16;;;;;;;3.78;3.47;;;;;;;10.61;79.40;99266.63;5078871;28;20108;-67
2023/04/01 05:00:42;;;;;;;3.40;3.17;;;;;;;10.62;79.16;99279.38;5065123;28;20032;-67
2023/04/01 05:03:08;;;;;;;3.63;3.33;;;;;;;10.57;79.24;99274.69;5069142;28;20101;-67
2023/04/01 05:05:33;;;;;;;3.22;3.03;;;;;;;10.59;79.23;99278.00;5064719;28;20025;-67
2023/04/01 05:07:59;;;;;;;3.50;3.20;;;;;;;10.60;79.13;99281.59;5077899;28;20383;-67
2023/04/01 05:10:24;;;;;;;3.83;3.53;;;;;;;10.60;79.03;99284.38;5066862;28;20045;-67
2023/04/01 05:12:50;;;;;;;3.75;3.45;;;;;;;10.58;79.11;99276.38;5067016;28;20044;-67
2023/04/01 05:15:15;;;;;;;3.55;3.28;;;;;;;10.55;79.17;99285.25;5077255;28;20392;-67
2023/04/01 05:17:40;;;;;;;3.65;3.35;;;;;;;10.59;79.23;99288.28;5077684;28;20033;-68
2023/04/01 05:20:06;;;;;;;3.25;3.05;;;;;;;10.53;79.24;99291.13;5070756;28;20021;-67
2023/04/01 05:22:32;;;;;;;3.40;3.10;;;;;;;10.57;79.12;99288.56;5067137;28;20036;-68
2023/04/01 05:24:57;;;;;;;3.00;2.75;;;;;;;10.59;79.08;99288.28;5067052;28;20170;-67
2023/04/01 05:27:22;;;;;;;3.10;2.78;;;;;;;10.61;79.07;99292.44;5070647;28;20036;-67
2023/04/01 05:29:47;;;;;;;3.03;2.83;;;;;;;10.61;79.03;99306.31;5065473;28;20120;-68
2023/04/01 05:32:13;;;;;;;3.47;3.20;;;;;;;10.58;79.17;99306.88;5070405;28;20033;-67
2023/04/01 05:34:38;;;;;;;3.20;2.90;;;;;;;10.57;78.93;99311.59;5061403;28;20024;-68
2023/04/01 05:37:03;;;;;;;3.50;3.20;;;;;;;10.59;79.44;99316.03;5063799;28;20471;-69
2023/04/01 05:39:29;;;;;;;3.50;3.20;;;;;;;10.57;79.29;99316.31;5066473;28;20028;-68
2023/04/01 05:41:54;;;;;;;3.45;3.15;;;;;;;10.55;79.10;99324.94;5065891;28;20036;-68
2023/04/01 05:44:19;;;;;;;4.00;3.60;;;;;;;10.55;79.00;99330.47;5062650;28;20028;-71
2023/04/01 05:46:45;;;;;;;4.10;3.80;;;;;;;10.54;79.53;99330.78;5067294;28;20040;-68
2023/04/01 05:49:10;;;;;;;4.47;4.07;;;;;;;10.52;79.60;99331.06;5070937;28;20106;-68
2023/04/01 05:51:35;;;;;;;3.85;3.45;;;;;;;10.52;79.80;99335.78;5059744;28;20505;-68
2023/04/01 05:54:00;;;;;;;4.35;3.95;;;;;;;10.54;79.66;99342.69;5062380;28;21135;-68
2023/04/01 05:56:26;;;;;;;4.93;4.40;;;;;;;10.52;80.07;99346.88;5069747;28;20196;-67
2023/04/01 05:58:53;;;;;;;4.65;4.25;;;;;;;10.50;80.02;99347.19;5075339;28;20035;-67
2023/04/01 06:01:19;;;;;;;5.22;4.72;;;;;;;10.51;79.99;99348.81;5063364;28;20058;-68
2023/04/01 06:03:45;;;;;;;5.70;5.20;;;;;;;10.49;79.82;99353.84;5062869;28;20085;-68
2023/04/01 06:06:15;;;;;;;5.82;5.15;;;;;;;10.53;79.92;99354.94;5069362;28;20032;-66
2023/04/01 06:08:41;;;;;;;5.63;5.13;;;;;;;10.51;80.13;99359.91;5071149;28;20784;-67
2023/04/01 06:11:22;;;;;;;5.60;5.10;;;;;;;10.55;80.06;99377.66;5067839;28;20041;-69
2023/04/01 06:14:12;;;;;;;5.68;5.18;;;;;;;10.52;80.20;99375.44;5069629;28;20060;-67
2023/04/01 06:16:57;;;;;;;5.97;5.38;;;;;;;10.52;80.09;99378.22;5051941;28;20115;-67
2023/04/01 06:19:42;;;;;;;5.50;5.00;;;;;;;10.55;80.08;99379.59;5052087;28;20033;-68
2023/04/01 06:22:39;;;;;;;5.80;5.30;;;;;;;10.53;80.39;99392.91;5051886;28;20025;-67
2023/04/01 06:25:30;;;;;;;8.07;5.68;;;;;;;10.52;80.48;99392.09;5050492;28;20048;-68
2023/04/01 06:28:18;;;;;;;6.65;5.97;;;;;;;10.55;80.14;99391.50;5066005;28;20067;-68
2023/04/01 06:31:17;;;;;;;6.38;5.82;;;;;;;10.53;80.29;99393.75;5069830;28;20050;-67
2023/04/01 06:34:06;;;;;;;6.00;5.50;;;;;;;10.55;80.35;99405.38;5074267;28;20040;-67
2023/04/01 06:36:38;;;;;;;6.88;6.28;;;;;;;10.56;80.67;99401.47;5062325;28;20032;-67
2023/04/01 06:39:19;;;;;;;7.03;6.43;;;;;;;10.59;80.69;99404.81;5064271;28;20150;-67
2023/04/01 06:41:58;;;;;;;7.28;6.57;;;;;;;10.60;80.32;99407.28;5063397;28;20066;-68
2023/04/01 06:44:50;;;;;;;8.60;7.80;;;;;;;10.59;80.49;99407.59;5064218;28;20036;-68
2023/04/01 06:47:18;;;;;;;8.30;7.50;;;;;;;10.60;80.64;99418.38;5074831;28;20063;-68
2023/04/01 06:50:15;;;;;;;9.38;8.35;;;;;;;10.56;80.72;99408.97;5070733;28;20071;-69
2023/04/01 06:52:54;;;;;;;10.07;8.93;;;;;;;10.59;80.72;99421.47;5062832;28;20044;-67
2023/04/01 06:55:39;;;;;;;10.73;9.63;;;;;;;10.63;80.68;99433.63;5062599;28;20025;-66
2023/04/01 06:58:20;;;;;;;10.57;9.57;;;;;;;10.59;80.91;99430.63;5069562;28;20502;-66
2023/04/01 07:00:48;;;;;;;12.63;9.80;;;;;;;10.62;80.85;99432.00;5065781;28;20418;-67
2023/04/01 07:03:46;;;;;;;10.70;9.70;;;;;;;10.67;80.81;99438.31;5070977;28;20067;-66
2023/04/01 07:06:26;;;;;;;10.95;9.85;;;;;;;10.67;80.87;99441.09;5060392;28;20462;-64
2023/04/01 07:08:55;;;;;;;11.07;9.98;;;;;;;10.72;80.87;99446.59;5057028;28;20035;-67
2023/04/01 07:11:34;;;;;;;14.98;11.20;;;;;;;10.74;80.81;99449.09;5060493;28;20379;-65
2023/04/01 07:14:18;;;;;;;12.60;11.30;;;;;;;10.80;80.60;99448.75;5067964;28;20037;-65
2023/04/01 07:16:49;;;;;;;12.30;11.13;;;;;;;10.76;80.88;99458.78;5060347;28;20439;-65
2023/04/01 07:19:20;;;;;;;12.23;11.00;;;;;;;10.79;80.95;99452.66;5072402;28;20069;-67
2023/04/01 07:21:52;;;;;;;17.40;12.65;;;;;;;10.78;80.92;99455.75;5065593;28;20028;-67
2023/04/01 07:24:26;;;;;;;14.55;11.32;;;;;;;10.78;80.72;99464.06;5061933;28;20088;-67
2023/04/01 07:26:55;;;;;;;14.48;12.55;;;;;;;10.80;80.81;99467.38;5059983;28;20472;-66
2023/04/01 07:29:21;;;;;;;16.38;13.20;;;;;;;10.82;80.86;99462.38;5072763;28;20028;-65
2023/04/01 07:32:17;;;;;;;14.32;12.85;;;;;;;10.82;80.62;99476.25;5081792;28;20621;-64
2023/04/01 07:34:42;;;;;;;15.50;13.02;;;;;;;10.83;80.60;99480.66;5063106;28;20060;-67
2023/04/01 07:37:32;;;;;;;18.23;13.98;;;;;;;10.84;80.86;99481.50;5060194;28;20091;-66
2023/04/01 07:40:14;;;;;;;17.15;13.40;;;;;;;10.81;80.67;99486.53;5063132;28;20071;-68
2023/04/01 07:43:09;;;;;;;16.77;12.82;;;;;;;10.86;80.78;99490.38;5061728;28;20437;-66
2023/04/01 07:45:38;;;;;;;16.45;13.27;;;;;;;10.86;80.53;99496.75;5057046;28;20222;-67
2023/04/01 07:48:34;;;;;;;19.83;14.00;;;;;;;10.91;80.79;99510.59;5056008;28;20040;-70
2023/04/01 07:51:07;;;;;;;16.05;13.00;;;;;;;10.90;80.10;99503.38;5059958;28;20739;-66
2023/04/01 07:54:11;;;;;;;18.40;14.10;;;;;;;10.91;80.29;99505.03;5058646;28;20318;-68
2023/04/01 07:56:54;;;;;;;18.13;12.90;;;;;;;10.93;80.35;99519.47;5063794;28;20036;-67
2023/04/01 07:59:21;;;;;;;16.10;13.85;;;;;;;10.88;80.18;99521.44;5060430;28;20033;-65
2023/04/01 08:02:04;;;;;;;16.10;12.98;;;;;;;10.92;79.67;99516.97;5056134;28;20052;-65
2023/04/01 08:04:42;;;;;;;18.30;13.02;;;;;;;10.94;79.58;99526.69;5057679;28;20036;-65
2023/04/01 08:07:16;;;;;;;20.92;13.73;;;;;;;10.98;80.14;99538.03;5069139;28;20025;-67
2023/04/01 08:09:42;;;;;;;18.88;13.68;;;;;;;10.97;80.20;99536.38;5069092;28;20025;-66
2023/04/01 08:12:31;;;;;;;17.52;13.55;;;;;;;11.00;80.46;99530.25;5064209;28;20094;-66
2023/04/01 08:15:23;;;;;;;16.17;13.70;;;;;;;11.05;80.43;99538.56;5054597;28;20045;-68
2023/04/01 08:18:06;;;;;;;20.05;13.63;;;;;;;11.10;80.21;99544.06;5060922;28;20033;-67
2023/04/01 08:20:42;;;;;;;17.08;13.55;;;;;;;11.10;80.15;99543.22;5068333;28;20059;-67
2023/04/01 08:23:26;;;;;;;14.30;12.65;;;;;;;11.12;80.58;99555.72;5071707;28;20029;-67
2023/04/01 08:26:03;;;;;;;16.50;13.20;;;;;;;11.13;80.46;99556.56;5069145;28;20031;-67
2023/04/01 08:28:56;;;;;;;18.42;13.43;;;;;;;11.18;80.38;99553.72;5066840;28;20029;-67
2023/04/01 08:31:30;;;;;;;;;;;;;;;11.25;79.46;99559.78;5050457;28;20058;-69
2023/04/01 08:33:56;;;;;;;18.23;13.32;;;;;;;11.13;80.05;99564.88;5068891;28;19927;-68
2023/04/01 08:36:32;;;;;;;18.83;14.48;;;;;;;11.14;80.15;99569.31;5068050;28;20025;-68
2023/04/01 08:39:06;;;;;;;21.48;15.93;;;;;;;11.10;80.19;99568.22;5064223;28;20090;-68
2023/04/01 08:41:58;;;;;;;16.05;13.93;;;;;;;11.13;80.15;99570.44;5056179;28;20025;-66
2023/04/01 08:45:00;;;;;;;15.40;12.73;;;;;;;11.16;80.00;99567.91;5049689;28;20033;-69
2023/04/01 08:47:50;;;;;;;19.77;13.68;;;;;;;11.16;79.63;99580.94;5049460;28;20037;-67
2023/04/01 08:50:33;;;;;;;19.30;14.05;;;;;;;11.17;79.68;99583.44;5066039;28;20043;-67
2023/04/01 08:53:09;;;;;;;18.23;14.15;;;;;;;11.16;80.12;99590.13;5063656;28;20040;-67
2023/04/01 08:55:55;;;;;;;18.63;14.20;;;;;;;11.16;80.14;99592.06;5053892;28;20067;-69
2023/04/01 08:58:30;;;;;;;16.67;13.00;;;;;;;11.16;79.98;99595.69;5057803;28;20056;-67
2023/04/01 09:01:26;;;;;;;15.57;11.95;;;;;;;11.18;79.68;99603.72;5061262;28;20043;-68
2023/04/01 09:04:22;;;;;;;18.30;13.10;;;;;;;11.22;80.03;99607.56;5064863;28;20525;-67
2023/04/01 09:06:51;;;;;;;17.58;12.65;;;;;;;11.18;79.84;99612.06;5062629;28;20866;-69
2023/04/01 09:09:35;;;;;;;18.50;12.13;;;;;;;11.21;79.84;99620.63;5066480;28;20130;-70
2023/04/01 09:12:23;;;;;;;18.75;13.90;;;;;;;11.20;79.71;99621.75;5066861;28;20098;-69
2023/04/01 09:14:56;;;;;;;16.42;11.85;;;;;;;11.23;79.62;99623.13;5060052;28;20032;-68
2023/04/01 09:18:13;;;;;;;18.00;12.98;;;;;;;11.28;79.81;99632.25;5059197;28;20052;-58
2023/04/01 09:20:47;;;;;;;12.60;10.32;;;;;;;11.24;79.91;99630.34;5026860;28;20127;-66
2023/04/01 09:23:41;;;;;;;11.88;9.98;;;;;;;11.20;80.01;99627.31;5027360;28;20045;-67
2023/04/01 09:26:25;;;;;;;13.00;9.98;;;;;;;11.25;80.05;99632.00;5066116;28;20052;-67
2023/04/01 09:29:17;;;;;;;11.13;9.50;;;;;;;11.24;79.72;99631.19;5053520;28;20058;-67
2023/04/01 09:32:00;;;;;;;12.82;9.05;;;;;;;11.27;79.93;99641.69;5055693;28;20085;-67
2023/04/01 09:34:43;;;;;;;8.82;7.93;;;;;;;11.34;80.79;99641.38;5069017;28;20191;-68
2023/04/01 09:37:27;;;;;;;;;;;;;;;11.40;79.54;99643.03;5069509;28;20039;-68
2023/04/01 09:40:20;;;;;;;9.15;7.95;;;;;;;11.24;79.81;99647.84;5076640;28;20300;-67
2023/04/01 09:42:54;;;;;;;10.10;9.02;;;;;;;11.23;79.74;99651.72;5063523;28;20127;-67
2023/04/01 09:45:35;;;;;;;10.25;9.18;;;;;;;11.27;79.85;99650.03;5072661;28;20537;-68
2023/04/01 09:48:22;;;;;;;11.02;9.25;;;;;;;11.26;80.52;99653.94;5063747;28;20519;-69
2023/04/01 09:51:54;;;;;;;9.82;8.93;;;;;;;11.28;80.20;99662.00;5069295;28;20032;-71
2023/04/01 09:54:56;;;;;;;9.85;8.85;;;;;;;11.28;80.22;99662.81;4947107;28;20074;-65
2023/04/01 09:57:27;;;;;;;13.25;9.10;;;;;;;11.24;80.30;99664.50;5076393;28;20487;-68
2023/04/01 10:00:31;;;;;;;9.48;8.55;;;;;;;11.25;80.08;99668.13;5069702;28;20040;-67
2023/04/01 10:03:34;;;;;;;9.15;8.25;;;;;;;11.28;79.96;99664.78;5082050;28;20040;-67
2023/04/01 10:06:27;;;;;;;9.40;8.30;;;;;;;11.28;80.50;99670.34;5061408;28;20064;-66
2023/04/01 10:09:11;;;;;;;12.43;9.00;;;;;;;11.28;80.08;99681.44;5053567;28;20041;-68
2023/04/01 10:11:58;;;;;;;12.13;8.80;;;;;;;11.28;80.14;99679.50;5069524;28;20048;-68
2023/04/01 10:14:32;;;;;;;11.00;9.15;;;;;;;11.28;79.93;99679.50;5076902;28;20028;-66
2023/04/01 10:17:26;;;;;;;13.27;10.05;;;;;;;11.30;80.04;99685.56;5085967;28;20032;-68
2023/04/01 10:20:04;;;;;;;12.85;9.57;;;;;;;11.25;80.08;99688.38;5038367;28;20254;-68
2023/04/01 10:23:00;;;;;;;11.70;10.02;;;;;;;11.30;80.03;99690.31;5064341;28;20017;-67
2023/04/01 10:25:37;;;;;;;14.48;10.38;;;;;;;11.26;80.18;99695.59;5066045;28;20041;-67
2023/04/01 10:28:41;;;;;;;12.00;9.40;;;;;;;11.28;79.72;99709.22;5069804;28;20034;-68
2023/04/01 10:31:45;;;;;;;15.00;10.48;;;;;;;11.29;79.96;99694.22;5070918;28;20032;-68
2023/04/01 10:34:48;;;;;;;13.38;11.18;;;;;;;11.34;79.74;99701.69;5069810;28;20036;-68
2023/04/01 10:37:55;;;;;;;15.30;12.10;;;;;;;11.35;79.55;99703.31;5052894;28;20488;-68
2023/04/01 10:40:26;;;;;;;14.98;11.70;;;;;;;11.33;79.28;99706.41;5069192;28;20040;-68
2023/04/01 10:43:24;;;;;;;16.95;11.68;;;;;;;11.34;79.67;99705.28;5069918;28;20028;-64
2023/04/01 10:46:11;;;;;;;14.82;11.98;;;;;;;11.36;79.91;99711.41;5073563;28;20483;-68
2023/04/01 10:49:17;;;;;;;14.07;12.68;;;;;;;11.36;79.71;99716.94;5071710;28;20078;-68
2023/04/01 10:51:59;;;;;;;13.68;11.80;;;;;;;11.32;80.00;99724.19;5050715;28;20073;-68
2023/04/01 10:54:45;;;;;;;14.98;12.73;;;;;;;11.36;79.95;99721.66;5050811;28;20025;-67
2023/04/01 10:57:32;;;;;;;15.25;12.23;;;;;;;11.33;79.93;99716.69;5063929;28;20030;-67
2023/04/01 11:00:22;;;;;;;14.43;12.77;;;;;;;11.37;80.30;99721.38;5071985;28;20029;-67
2023/04/01 11:03:25;;;;;;;16.52;13.55;;;;;;;11.37;80.24;99720.56;5050818;28;20068;-67
2023/04/01 11:05:53;;;;;;;17.42;13.77;;;;;;;11.33;80.24;99725.84;5051255;28;20106;-66
2023/04/01 11:08:32;;;;;;;15.63;13.35;;;;;;;11.36;80.46;99724.44;5050230;28;20039;-67
2023/04/01 11:11:17;;;;;;;15.60;13.73;;;;;;;11.38;80.46;99727.75;5057959;28;20028;-68
2023/04/01 11:14:13;;;;;;;16.50;14.18;;;;;;;11.42;80.48;99732.47;5062441;28;20040;-67
2023/04/01 11:17:01;;;;;;;16.05;13.15;;;;;;;11.44;80.33;99734.97;5069913;28;20059;-67
2023/04/01 11:19:42;;;;;;;20.60;13.48;;;;;;;11.42;80.54;99735.25;5069768;28;20388;-65
2023/04/01 11:22:35;;;;;;;15.93;14.07;;;;;;;11.43;80.18;99738.84;5066721;28;20495;-65
2023/04/01 11:25:08;;;;;;;15.57;13.88;;;;;;;11.43;80.53;99744.41;5070529;28;20534;-67
2023/04/01 11:27:46;;;;;;;17.85;14.43;;;;;;;11.41;80.42;99752.22;5057640;28;22068;-65
2023/04/01 11:30:22;;;;;;;16.02;13.40;;;;;;;11.39;80.27;99746.91;5061545;28;20025;-65
2023/04/01 11:33:02;;;;;;;14.60;12.65;;;;;;;11.35;80.40;99751.38;5063713;28;20044;-65
2023/04/01 11:35:52;;;;;;;13.80;12.02;;;;;;;11.39;80.39;99760.81;5063807;28;20022;-68
2023/04/01 11:38:29;;;;;;;13.10;11.80;;;;;;;11.31;80.41;99758.63;5055481;28;20097;-67
2023/04/01 11:41:25;;;;;;;13.20;11.57;;;;;;;11.36;80.37;99757.75;5068273;28;20487;-64
2023/04/01 11:44:20;;;;;;;12.90;11.60;;;;;;;11.37;80.55;99770.56;5064462;28;20040;-67
2023/04/01 11:47:27;;;;;;;15.10;13.15;;;;;;;11.38;80.81;99769.44;5060491;28;20052;-67
2023/04/01 11:50:11;;;;;;;16.45;13.75;;;;;;;11.40;81.06;99768.06;5056509;28;20052;-66
2023/04/01 11:53:14;;;;;;;13.52;12.23;;;;;;;11.44;80.94;99779.44;5067195;28;20047;-65
2023/04/01 11:56:07;;;;;;;14.60;12.50;;;;;;;11.43;81.27;99778.56;5065186;28;20124;-66
2023/04/01 11:59:27;;;;;;;13.77;12.10;;;;;;;11.48;81.07;99786.91;5051163;28;20425;-66
2023/04/01 12:02:29;;;;;;;11.93;10.63;;;;;;;11.45;81.04;99789.41;5006217;28;20034;-66
2023/04/01 12:05:19;;;;;;;11.23;10.13;;;;;;;11.46;81.44;99799.41;5000299;28;20037;-67
2023/04/01 12:08:03;;;;;;;11.77;9.90;;;;;;;11.45;81.29;99792.19;5061049;28;20317;-65